Time;durP1;ratioP1;P1;durP2;ratioP2;P2;SDS_P1;SDS_P2;PMS_P1;PMS_P2;Temp;Humidity;BMP_temperature;BMP_pressure;BME280_temperature;BME280_humidity;BME280_pressure;Samples;Min_cycle;Max_cycle;Signal;HPM_P1;HPM_P2
2022/01/27 00:07:21;;;;;;;108.15;30.58;;;-2.20;99.90;;;;;;20668506;28;20030;-77
2022/01/27 00:17:29;;;;;;;143.75;33.13;;;-2.30;99.90;;;;;;20673363;28;20031;-78
2022/01/27 00:27:29;;;;;;;117.53;31.88;;;-2.30;99.90;;;;;;20672582;28;20035;-77
2022/01/27 00:37:30;;;;;;;95.20;30.67;;;-2.20;99.90;;;;;;20629294;28;20691;-77
2022/01/27 00:47:31;;;;;;;116.72;33.55;;;-2.30;99.90;;;;;;20662771;28;20034;-74
2022/01/27 01:07:40;;;;;;;102.55;29.65;;;-2.20;99.90;;;;;;20662448;28;20030;-77
2022/01/27 01:17:59;;;;;;;113.75;29.20;;;-2.20;99.90;;;;;;20644261;28;20042;-77
2022/01/27 01:38:25;;;;;;;104.97;30.60;;;-2.30;99.90;;;;;;20667298;28;20451;-73
2022/01/27 01:48:25;;;;;;;116.85;32.40;;;-2.30;99.90;;;;;;20666828;28;20046;-72
2022/01/27 01:58:26;;;;;;;116.80;33.38;;;-2.30;99.90;;;;;;20674755;28;20034;-72
2022/01/27 02:08:39;;;;;;;110.35;31.65;;;-2.30;99.90;;;;;;20672570;28;20045;-73
2022/01/27 02:18:40;;;;;;;106.25;27.90;;;-2.30;99.90;;;;;;20671941;28;20038;-73
2022/01/27 02:28:41;;;;;;;105.03;29.52;;;-2.20;99.90;;;;;;20672144;28;20054;-73
2022/01/27 02:38:42;;;;;;;94.38;28.70;;;-2.10;99.90;;;;;;20671464;28;20037;-73
2022/01/27 02:48:43;;;;;;;97.45;28.17;;;-2.20;99.90;;;;;;20670021;28;20062;-72
2022/01/27 02:58:43;;;;;;;125.72;29.95;;;-2.40;99.90;;;;;;20669469;28;20405;-73
2022/01/27 03:08:44;;;;;;;86.13;27.08;;;-2.40;99.90;;;;;;20669337;28;20034;-73
2022/01/27 03:18:45;;;;;;;83.32;24.80;;;-2.40;99.90;;;;;;20668587;28;20033;-73
2022/01/27 03:28:46;;;;;;;104.80;28.60;;;-2.30;99.90;;;;;;20667681;28;20030;-73
2022/01/27 03:38:47;;;;;;;90.20;28.75;;;-2.30;99.90;;;;;;20666981;28;20448;-73
2022/01/27 03:48:48;;;;;;;72.35;23.88;;;-2.30;99.90;;;;;;20666186;28;20077;-73
2022/01/27 03:58:49;;;;;;;73.85;25.95;;;-2.30;99.90;;;;;;20665433;28;20034;-73
2022/01/27 04:08:50;;;;;;;79.78;26.98;;;-2.50;99.90;;;;;;20663725;28;20422;-73
2022/01/27 04:18:51;;;;;;;72.72;23.98;;;-2.40;99.90;;;;;;20662977;28;20034;-72
2022/01/27 04:28:53;;;;;;;77.18;24.58;;;-2.50;99.90;;;;;;20662978;28;20041;-72
2022/01/27 04:39:08;;;;;;;77.25;24.45;;;-2.50;99.90;;;;;;20661447;28;20374;-72
2022/01/27 04:49:10;;;;;;;64.28;24.15;;;-2.50;99.90;;;;;;20660832;28;20039;-72
2022/01/27 04:59:25;;;;;;;73.28;25.23;;;-2.30;99.90;;;;;;20661887;28;20397;-73
2022/01/27 05:09:26;;;;;;;63.03;22.83;;;-2.20;99.90;;;;;;20661507;28;20066;-72
2022/01/27 05:19:27;;;;;;;72.32;23.58;;;-2.30;99.90;;;;;;20661114;28;20022;-72
2022/01/27 05:29:28;;;;;;;72.45;22.63;;;-2.30;99.90;;;;;;20659380;28;20026;-72
2022/01/27 05:39:28;;;;;;;64.32;22.67;;;-2.20;99.90;;;;;;20676269;28;20072;-72
2022/01/27 05:49:29;;;;;;;71.65;21.15;;;-2.30;99.90;;;;;;20675306;28;20034;-74
2022/01/27 05:59:30;;;;;;;58.08;17.83;;;-2.30;99.90;;;;;;20739178;28;20503;-73
2022/01/27 06:09:31;;;;;;;57.40;20.17;;;-2.40;99.90;;;;;;20748845;28;20109;-74
2022/01/27 06:19:32;;;;;;;60.33;21.02;;;-2.60;99.90;;;;;;20670686;28;20060;-72
2022/01/27 06:29:33;;;;;;;62.63;21.10;;;-2.50;99.90;;;;;;20670733;28;20033;-72
2022/01/27 06:39:34;;;;;;;65.30;22.08;;;-2.50;99.90;;;;;;20669316;28;20026;-72
2022/01/27 06:49:34;;;;;;;58.40;19.48;;;-2.30;99.90;;;;;;20670642;28;20034;-71
2022/01/27 06:59:35;;;;;;;61.38;19.73;;;-2.70;99.90;;;;;;20669974;28;20112;-71
2022/01/27 07:09:36;;;;;;;62.45;20.45;;;-2.90;99.90;;;;;;20669260;28;20031;-72
2022/01/27 07:19:37;;;;;;;70.20;20.70;;;-3.00;99.90;;;;;;20668980;28;20393;-72
2022/01/27 07:29:38;;;;;;;68.68;22.60;;;-2.90;99.90;;;;;;20657491;28;20034;-72
2022/01/27 07:39:39;;;;;;;70.60;22.35;;;-2.60;99.90;;;;;;20674691;28;20162;-71
2022/01/27 07:49:40;;;;;;;69.45;22.27;;;-2.50;99.90;;;;;;20681206;28;20647;-72
2022/01/27 07:59:40;;;;;;;75.95;22.65;;;-2.40;99.90;;;;;;20665371;28;20167;-73
2022/01/27 08:09:41;;;;;;;80.93;23.63;;;-2.50;99.90;;;;;;20679697;28;20503;-72
2022/01/27 08:19:43;;;;;;;73.63;22.90;;;-2.50;99.90;;;;;;20680801;23;20109;-75
2022/01/27 08:29:49;;;;;;;69.82;23.40;;;-2.40;99.90;;;;;;20743092;28;20042;-77
2022/01/27 08:39:49;;;;;;;71.95;24.48;;;-2.20;99.90;;;;;;20744823;28;20033;-76
2022/01/27 08:49:51;;;;;;;60.20;21.58;;;-2.20;99.90;;;;;;20744403;28;20132;-77
2022/01/27 08:59:53;;;;;;;60.33;22.75;;;-2.20;99.90;;;;;;20743396;28;20070;-77
2022/01/27 09:09:54;;;;;;;67.20;24.17;;;-2.40;99.90;;;;;;20743054;28;20088;-75
2022/01/27 09:19:55;;;;;;;67.55;24.55;;;-2.50;99.90;;;;;;20742933;28;20038;-76
2022/01/27 09:29:55;;;;;;;60.28;22.02;;;-2.70;99.90;;;;;;20742622;28;20030;-77
2022/01/27 09:39:56;;;;;;;71.18;23.05;;;-2.90;99.90;;;;;;20742190;28;20053;-77
2022/01/27 10:00:25;;;;;;;73.25;23.65;;;-2.70;99.90;;;;;;20724444;28;20145;-76
2022/01/27 10:10:26;;;;;;;71.28;23.17;;;-2.60;99.90;;;;;;20746033;28;20042;-77
2022/01/27 10:20:27;;;;;;;78.45;21.90;;;-2.60;99.90;;;;;;20754731;28;20029;-77
2022/01/27 10:40:34;;;;;;;69.70;20.83;;;-2.60;99.90;;;;;;20752584;28;20042;-76
2022/01/27 11:01:04;;;;;;;50.87;15.60;;;-2.30;99.90;;;;;;20751822;28;20506;-76
2022/01/27 11:11:05;;;;;;;68.93;23.48;;;-2.40;99.90;;;;;;20750543;28;20101;-76
2022/01/27 11:21:23;;;;;;;70.10;22.38;;;-1.90;99.90;;;;;;20749623;28;20403;-75
2022/01/27 11:31:54;;;;;;;81.35;30.00;;;-1.90;99.90;;;;;;20748207;28;20492;-75
2022/01/27 11:41:55;;;;;;;81.82;27.45;;;-1.40;99.90;;;;;;20747701;28;20108;-75
2022/01/27 11:52:18;;;;;;;62.50;22.75;;;-0.70;99.90;;;;;;20748938;28;20118;-76
2022/01/27 12:02:21;;;;;;;57.47;21.40;;;0.00;99.90;;;;;;20749715;28;20041;-78
2022/01/27 12:12:32;;;;;;;61.25;22.25;;;1.00;99.90;;;;;;20748052;28;20033;-78
2022/01/27 12:22:52;;;;;;;50.00;18.98;;;1.00;99.90;;;;;;20751958;28;20435;-77
2022/01/27 12:32:58;;;;;;;54.95;20.95;;;1.50;99.90;;;;;;20758121;28;20093;-77
2022/01/27 12:43:07;;;;;;;53.40;19.85;;;1.40;99.90;;;;;;20745883;28;20069;-77
2022/01/27 12:53:12;;;;;;;47.05;18.90;;;2.00;99.90;;;;;;20743147;28;20072;-77
2022/01/27 13:03:13;;;;;;;40.70;17.80;;;2.30;99.90;;;;;;20742963;28;20156;-76
2022/01/27 13:13:22;;;;;;;36.10;15.73;;;1.90;99.90;;;;;;20744602;28;20038;-77
2022/01/27 13:23:38;;;;;;;37.78;15.98;;;2.20;99.90;;;;;;20745687;28;20057;-76
2022/01/27 13:33:42;;;;;;;37.53;15.77;;;2.20;99.90;;;;;;20743870;28;20452;-77
2022/01/27 13:43:48;;;;;;;37.05;15.10;;;2.10;99.90;;;;;;20748990;28;20065;-76
2022/01/27 13:54:16;;;;;;;32.75;14.00;;;1.90;99.90;;;;;;20757049;28;20041;-77
2022/01/27 14:04:17;;;;;;;35.38;12.85;;;1.70;99.90;;;;;;20756647;28;20041;-75
2022/01/27 14:14:18;;;;;;;26.88;11.95;;;1.50;99.90;;;;;;20757783;28;20034;-76
2022/01/27 14:24:21;;;;;;;37.50;13.85;;;1.70;99.90;;;;;;20843240;23;20071;-74
2022/01/27 14:34:31;;;;;;;39.63;15.82;;;1.40;99.90;;;;;;20883336;28;20510;-74
2022/01/27 14:44:34;;;;;;;33.15;13.95;;;1.00;99.90;;;;;;20917035;28;20055;-74
2022/01/27 14:54:35;;;;;;;33.38;13.82;;;1.10;99.90;;;;;;20915526;28;20037;-74
2022/01/27 15:04:36;;;;;;;32.35;12.77;;;1.00;99.90;;;;;;20915351;28;20039;-74
2022/01/27 15:24:56;;;;;;;27.15;12.13;;;1.00;99.90;;;;;;20894909;28;20123;-75
2022/01/27 15:34:58;;;;;;;30.15;11.75;;;0.90;99.90;;;;;;20897846;28;20081;-75
2022/01/27 15:44:59;;;;;;;31.35;12.23;;;0.70;99.90;;;;;;20975352;28;20064;-74
2022/01/27 15:55:01;;;;;;;31.00;12.23;;;0.30;99.90;;;;;;20899656;28;20041;-74
2022/01/27 16:05:02;;;;;;;34.47;12.60;;;-0.20;99.90;;;;;;20890711;28;20037;-73
2022/01/27 16:15:03;;;;;;;27.63;11.70;;;-0.40;99.90;;;;;;20923903;28;20024;-74
2022/01/27 16:25:04;;;;;;;32.60;12.85;;;-0.60;99.90;;;;;;20896473;28;20033;-75
2022/01/27 16:35:10;;;;;;;38.05;12.10;;;-0.90;99.90;;;;;;20888284;28;20047;-74
2022/01/27 16:45:11;;;;;;;35.58;13.68;;;-1.00;99.90;;;;;;20888497;28;20828;-74
2022/01/27 16:55:12;;;;;;;33.72;12.93;;;-1.10;99.90;;;;;;20887674;28;20491;-74
2022/01/27 17:05:13;;;;;;;32.92;13.48;;;-1.20;99.90;;;;;;20886996;28;20045;-74
2022/01/27 17:15:14;;;;;;;35.63;12.40;;;-1.10;99.90;;;;;;20923041;28;20094;-74
2022/01/27 17:25:18;;;;;;;40.60;13.85;;;-1.10;99.90;;;;;;20908251;28;20036;-73
2022/01/27 17:35:19;;;;;;;32.67;12.13;;;-1.10;99.90;;;;;;20902204;28;20041;-74
2022/01/27 17:45:21;;;;;;;36.22;13.38;;;-1.00;99.90;;;;;;20901953;28;20089;-74
2022/01/27 17:55:25;;;;;;;34.95;11.65;;;-0.90;99.90;;;;;;20900229;28;20029;-74
2022/01/27 18:05:26;;;;;;;46.50;15.18;;;-0.60;99.90;;;;;;20882270;28;20033;-74
2022/01/27 18:15:27;;;;;;;36.00;13.13;;;-0.50;99.90;;;;;;20911981;28;20040;-74
2022/01/27 18:25:29;;;;;;;32.17;12.10;;;-0.30;99.90;;;;;;20900341;28;20420;-74
2022/01/27 18:35:30;;;;;;;39.53;14.18;;;-0.10;99.90;;;;;;20915544;28;20104;-74
2022/01/27 18:45:31;;;;;;;43.70;16.83;;;-0.30;99.90;;;;;;20897679;28;20068;-74
2022/01/27 18:55:32;;;;;;;43.03;15.60;;;-0.40;99.90;;;;;;20914167;28;20545;-75
2022/01/27 19:05:33;;;;;;;50.05;17.58;;;-0.40;99.90;;;;;;20895938;28;20111;-74
2022/01/27 19:15:38;;;;;;;46.95;15.02;;;-0.40;99.90;;;;;;20913091;28;20040;-75
2022/01/27 19:25:42;;;;;;;41.15;14.77;;;-0.30;99.90;;;;;;20912414;28;20518;-74
2022/01/27 19:35:43;;;;;;;48.60;15.52;;;-0.20;99.90;;;;;;20909965;28;20151;-73
2022/01/27 19:45:44;;;;;;;50.03;16.88;;;-0.10;99.90;;;;;;20876481;28;20519;-74
2022/01/27 19:55:45;;;;;;;45.17;15.35;;;0.10;99.90;;;;;;20908776;28;20036;-75
2022/01/27 20:05:47;;;;;;;43.80;15.43;;;0.10;99.90;;;;;;20891601;28;20065;-73
2022/01/27 20:15:57;;;;;;;45.38;16.83;;;0.10;99.90;;;;;;20907586;28;20055;-74
2022/01/27 20:26:02;;;;;;;44.67;12.50;;;0.10;99.90;;;;;;20829207;22;20096;-77
2022/01/27 20:36:05;;;;;;;49.97;17.45;;;0.20;99.90;;;;;;20744325;28;20042;-76
2022/01/27 20:46:11;;;;;;;47.58;15.07;;;0.30;99.90;;;;;;20757966;28;20022;-77
2022/01/27 20:56:14;;;;;;;51.55;16.52;;;0.30;99.90;;;;;;20745645;28;20036;-77
2022/01/27 21:06:15;;;;;;;51.50;15.82;;;0.50;99.90;;;;;;20764079;28;20047;-76
2022/01/27 21:16:16;;;;;;;44.30;16.98;;;0.50;99.90;;;;;;20770639;28;20507;-76
2022/01/27 21:26:17;;;;;;;44.88;15.13;;;0.60;99.90;;;;;;20744054;28;20034;-76
2022/01/27 21:36:18;;;;;;;56.60;19.27;;;0.60;99.90;;;;;;20748636;28;20030;-77
2022/01/27 21:46:22;;;;;;;52.67;18.25;;;0.50;99.90;;;;;;20742369;28;20041;-75
2022/01/27 21:56:23;;;;;;;53.78;19.48;;;0.50;99.90;;;;;;20742838;28;20033;-77
2022/01/27 22:06:24;;;;;;;46.72;15.32;;;0.60;99.90;;;;;;20749464;28;20583;-75
2022/01/27 22:16:24;;;;;;;53.53;16.98;;;0.60;99.90;;;;;;20755670;28;20561;-75
2022/01/27 22:26:25;;;;;;;50.40;15.57;;;0.60;99.90;;;;;;20737166;28;20046;-76
2022/01/27 22:36:26;;;;;;;50.17;16.25;;;0.60;99.90;;;;;;20754005;28;20040;-77
2022/01/27 22:46:27;;;;;;;44.33;15.27;;;0.60;99.90;;;;;;20754656;28;20036;-77
2022/01/27 22:56:28;;;;;;;50.20;15.73;;;0.60;99.90;;;;;;20752886;28;20545;-75
2022/01/27 23:06:29;;;;;;;48.25;15.95;;;0.60;99.90;;;;;;20758270;28;20030;-77
2022/01/27 23:26:43;;;;;;;46.58;13.82;;;0.70;99.90;;;;;;20748541;28;20069;-75
2022/01/27 23:36:52;;;;;;;;;;;0.80;99.90;;;;;;20750124;28;20034;-74
2022/01/27 23:57:03;;;;;;;37.72;14.75;;;0.80;99.90;;;;;;20747837;28;20490;-77
